sensor_id;sensor_type;location;lat;lon;timestamp;pressure;altitude;pressure_sealevel;temperature;humidity
37852;BME280;23691;52.486;4.650;2023-02-12T00:01:08;103876.22;;;8.79;84.24
37852;BME280;23691;52.486;4.650;2023-02-12T00:03:34;103870.41;;;8.71;84.31
37852;BME280;23691;52.486;4.650;2023-02-12T00:06:00;103879.19;;;8.73;84.52
37852;BME280;23691;52.486;4.650;2023-02-12T00:08:27;103870.34;;;8.72;84.37
37852;BME280;23691;52.486;4.650;2023-02-12T00:10:52;103879.19;;;8.73;84.39
37852;BME280;23691;52.486;4.650;2023-02-12T00:13:17;103878.28;;;8.74;84.32
37852;BME280;23691;52.486;4.650;2023-02-12T00:15:43;103876.38;;;8.76;84.22
37852;BME280;23691;52.486;4.650;2023-02-12T00:18:08;103878.09;;;8.77;84.12
37852;BME280;23691;52.486;4.650;2023-02-12T00:20:34;103884.47;;;8.74;83.94
37852;BME280;23691;52.486;4.650;2023-02-12T00:23:00;103880.00;;;8.75;84.14
37852;BME280;23691;52.486;4.650;2023-02-12T00:25:26;103885.41;;;8.73;84.01
37852;BME280;23691;52.486;4.650;2023-02-12T00:27:51;103883.63;;;8.74;84.40
37852;BME280;23691;52.486;4.650;2023-02-12T00:30:17;103880.00;;;8.75;83.95
37852;BME280;23691;52.486;4.650;2023-02-12T00:32:44;103880.78;;;8.77;83.86
37852;BME280;23691;52.486;4.650;2023-02-12T00:35:09;103879.13;;;8.74;84.01
37852;BME280;23691;52.486;4.650;2023-02-12T00:37:35;103870.34;;;8.72;84.07
37852;BME280;23691;52.486;4.650;2023-02-12T00:40:04;103866.81;;;8.72;84.09
37852;BME280;23691;52.486;4.650;2023-02-12T00:42:32;103873.84;;;8.73;83.72
37852;BME280;23691;52.486;4.650;2023-02-12T00:44:58;103874.03;;;8.70;84.01
37852;BME280;23691;52.486;4.650;2023-02-12T00:47:23;103874.09;;;8.68;84.00
37852;BME280;23691;52.486;4.650;2023-02-12T00:49:49;103874.03;;;8.70;84.03
37852;BME280;23691;52.486;4.650;2023-02-12T00:52:14;103870.41;;;8.71;83.84
37852;BME280;23691;52.486;4.650;2023-02-12T00:54:39;103866.00;;;8.70;83.84
37852;BME280;23691;52.486;4.650;2023-02-12T00:57:05;103864.19;;;8.70;83.71
37852;BME280;23691;52.486;4.650;2023-02-12T00:59:30;103863.41;;;8.68;83.83
37852;BME280;23691;52.486;4.650;2023-02-12T01:01:56;103870.63;;;8.66;83.81
37852;BME280;23691;52.486;4.650;2023-02-12T01:04:21;103860.06;;;8.65;83.91
37852;BME280;23691;52.486;4.650;2023-02-12T01:06:47;103863.50;;;8.67;83.68
37852;BME280;23691;52.486;4.650;2023-02-12T01:09:13;103867.03;;;8.67;83.78
37852;BME280;23691;52.486;4.650;2023-02-12T01:11:39;103870.50;;;8.69;83.72
37852;BME280;23691;52.486;4.650;2023-02-12T01:14:05;103869.72;;;8.67;83.54
37852;BME280;23691;52.486;4.650;2023-02-12T01:16:31;103868.13;;;8.63;83.50
37852;BME280;23691;52.486;4.650;2023-02-12T01:18:58;103861.06;;;8.62;83.50
37852;BME280;23691;52.486;4.650;2023-02-12T01:21:28;103865.63;;;8.60;83.27
37852;BME280;23691;52.486;4.650;2023-02-12T01:23:55;103873.63;;;8.60;83.36
37852;BME280;23691;52.486;4.650;2023-02-12T01:26:21;103872.91;;;8.56;83.46
37852;BME280;23691;52.486;4.650;2023-02-12T01:28:50;103873.06;;;8.53;83.48
37852;BME280;23691;52.486;4.650;2023-02-12T01:31:18;103879.34;;;8.52;83.76
37852;BME280;23691;52.486;4.650;2023-02-12T01:33:47;103875.88;;;8.50;83.33
37852;BME280;23691;52.486;4.650;2023-02-12T01:36:13;103869.94;;;8.45;83.42
37852;BME280;23691;52.486;4.650;2023-02-12T01:38:38;103865.59;;;8.43;83.35
37852;BME280;23691;52.486;4.650;2023-02-12T01:41:06;103878.19;;;8.39;83.44
37852;BME280;23691;52.486;4.650;2023-02-12T01:43:33;103873.00;;;8.36;83.40
37852;BME280;23691;52.486;4.650;2023-02-12T01:46:00;103874.88;;;8.34;83.42
37852;BME280;23691;52.486;4.650;2023-02-12T01:48:28;103865.31;;;8.30;83.48
37852;BME280;23691;52.486;4.650;2023-02-12T01:50:55;103864.59;;;8.26;83.17
37852;BME280;23691;52.486;4.650;2023-02-12T01:53:23;103870.31;;;8.18;83.26
37852;BME280;23691;52.486;4.650;2023-02-12T01:55:52;103866.94;;;8.15;83.20
37852;BME280;23691;52.486;4.650;2023-02-12T01:58:19;103864.41;;;8.12;83.31
37852;BME280;23691;52.486;4.650;2023-02-12T02:00:45;103870.84;;;8.08;83.21
37852;BME280;23691;52.486;4.650;2023-02-12T02:03:11;103872.78;;;8.04;83.17
37852;BME280;23691;52.486;4.650;2023-02-12T02:05:56;103862.25;;;8.01;83.26
37852;BME280;23691;52.486;4.650;2023-02-12T02:08:24;103859.75;;;7.98;83.14
37852;BME280;23691;52.486;4.650;2023-02-12T02:10:49;103864.22;;;7.98;83.35
37852;BME280;23691;52.486;4.650;2023-02-12T02:13:15;103867.97;;;7.93;83.10
37852;BME280;23691;52.486;4.650;2023-02-12T02:16:03;103872.56;;;7.90;83.06
37852;BME280;23691;52.486;4.650;2023-02-12T02:18:57;103874.47;;;7.88;83.14
37852;BME280;23691;52.486;4.650;2023-02-12T02:27:13;103856.81;;;7.85;83.04
37852;BME280;23691;52.486;4.650;2023-02-12T02:32:31;103863.22;;;7.81;83.28
37852;BME280;23691;52.486;4.650;2023-02-12T02:37:59;103863.38;;;7.78;83.25
37852;BME280;23691;52.486;4.650;2023-02-12T02:41:02;103865.09;;;7.79;83.31
37852;BME280;23691;52.486;4.650;2023-02-12T02:43:34;103865.25;;;7.76;83.26
37852;BME280;23691;52.486;4.650;2023-02-12T02:46:07;103859.91;;;7.76;83.29
37852;BME280;23691;52.486;4.650;2023-02-12T02:48:39;103862.56;;;7.76;83.45
37852;BME280;23691;52.486;4.650;2023-02-12T02:51:13;103854.63;;;7.74;83.63
37852;BME280;23691;52.486;4.650;2023-02-12T02:53:44;103853.78;;;7.74;83.75
37852;BME280;23691;52.486;4.650;2023-02-12T02:56:15;103860.06;;;7.73;83.69
37852;BME280;23691;52.486;4.650;2023-02-12T02:58:50;103862.63;;;7.74;83.71
37852;BME280;23691;52.486;4.650;2023-02-12T03:01:24;103856.44;;;7.74;83.69
37852;BME280;23691;52.486;4.650;2023-02-12T03:04:05;103854.63;;;7.74;83.76
37852;BME280;23691;52.486;4.650;2023-02-12T03:09:03;103857.41;;;7.73;83.69
37852;BME280;23691;52.486;4.650;2023-02-12T03:11:31;103859.19;;;7.72;83.82
37852;BME280;23691;52.486;4.650;2023-02-12T03:14:06;103858.25;;;7.73;83.89
37852;BME280;23691;52.486;4.650;2023-02-12T03:16:38;103855.59;;;7.73;83.99
37852;BME280;23691;52.486;4.650;2023-02-12T03:19:12;103852.78;;;7.77;83.97
37852;BME280;23691;52.486;4.650;2023-02-12T03:21:46;103849.16;;;7.78;84.04
37852;BME280;23691;52.486;4.650;2023-02-12T03:24:18;103856.19;;;7.80;84.08
37852;BME280;23691;52.486;4.650;2023-02-12T03:26:49;103841.97;;;7.80;84.21
37852;BME280;23691;52.486;4.650;2023-02-12T03:29:16;103842.75;;;7.82;84.00
37852;BME280;23691;52.486;4.650;2023-02-12T03:31:52;103843.63;;;7.82;84.20
37852;BME280;23691;52.486;4.650;2023-02-12T03:34:36;103845.28;;;7.85;84.20
37852;BME280;23691;52.486;4.650;2023-02-12T03:37:09;103842.59;;;7.85;84.24
37852;BME280;23691;52.486;4.650;2023-02-12T03:42:32;103848.56;;;7.90;84.44
37852;BME280;23691;52.486;4.650;2023-02-12T03:45:03;103848.56;;;7.90;84.33
37852;BME280;23691;52.486;4.650;2023-02-12T03:50:32;103849.47;;;7.90;84.28
37852;BME280;23691;52.486;4.650;2023-02-12T03:53:01;103852.13;;;7.90;84.41
37852;BME280;23691;52.486;4.650;2023-02-12T03:55:26;103841.47;;;7.90;84.43
37852;BME280;23691;52.486;4.650;2023-02-12T03:57:57;103849.31;;;7.93;84.46
37852;BME280;23691;52.486;4.650;2023-02-12T04:00:25;103851.13;;;7.93;84.58
37852;BME280;23691;52.486;4.650;2023-02-12T04:02:52;103863.50;;;7.94;84.51
37852;BME280;23691;52.486;4.650;2023-02-12T04:05:25;103864.28;;;7.96;84.63
37852;BME280;23691;52.486;4.650;2023-02-12T04:07:51;103861.63;;;7.96;84.52
37852;BME280;23691;52.486;4.650;2023-02-12T04:10:31;103864.22;;;7.98;84.70
37852;BME280;23691;52.486;4.650;2023-02-12T04:16:02;103872.22;;;7.98;84.71
37852;BME280;23691;52.486;4.650;2023-02-12T04:18:41;103877.47;;;7.99;84.77
37852;BME280;23691;52.486;4.650;2023-02-12T04:23:58;103877.31;;;8.02;84.60
37852;BME280;23691;52.486;4.650;2023-02-12T04:26:38;103886.25;;;8.01;84.58
37852;BME280;23691;52.486;4.650;2023-02-12T04:32:03;103879.13;;;8.02;84.70
37852;BME280;23691;52.486;4.650;2023-02-12T04:34:42;103894.09;;;8.04;84.58
37852;BME280;23691;52.486;4.650;2023-02-12T04:37:18;103887.75;;;8.07;84.39
37852;BME280;23691;52.486;4.650;2023-02-12T04:39:47;103897.63;;;8.05;84.70
37852;BME280;23691;52.486;4.650;2023-02-12T04:42:13;103895.84;;;8.05;84.67
37852;BME280;23691;52.486;4.650;2023-02-12T04:44:42;103903.75;;;8.07;84.75
37852;BME280;23691;52.486;4.650;2023-02-12T04:47:12;103902.84;;;8.08;84.72
37852;BME280;23691;52.486;4.650;2023-02-12T04:49:37;103896.72;;;8.06;84.62
37852;BME280;23691;52.486;4.650;2023-02-12T04:52:06;103902.91;;;8.06;84.69
37852;BME280;23691;52.486;4.650;2023-02-12T04:54:31;103898.38;;;8.08;84.89
37852;BME280;23691;52.486;4.650;2023-02-12T04:56:57;103899.06;;;8.12;84.74
37852;BME280;23691;52.486;4.650;2023-02-12T04:59:22;103900.81;;;8.13;84.52
37852;BME280;23691;52.486;4.650;2023-02-12T05:01:48;103897.19;;;8.14;84.46
37852;BME280;23691;52.486;4.650;2023-02-12T05:04:17;103892.66;;;8.16;84.19
37852;BME280;23691;52.486;4.650;2023-02-12T05:06:44;103895.25;;;8.17;84.33
37852;BME280;23691;52.486;4.650;2023-02-12T05:09:15;103899.66;;;8.18;84.24
37852;BME280;23691;52.486;4.650;2023-02-12T05:11:41;103900.50;;;8.19;84.16
37852;BME280;23691;52.486;4.650;2023-02-12T05:14:07;103908.50;;;8.19;84.27
37852;BME280;23691;52.486;4.650;2023-02-12T05:16:32;103896.06;;;8.20;83.88
37852;BME280;23691;52.486;4.650;2023-02-12T05:18:58;103891.66;;;8.18;83.92
37852;BME280;23691;52.486;4.650;2023-02-12T05:21:23;103896.97;;;8.18;83.88
37852;BME280;23691;52.486;4.650;2023-02-12T05:23:51;103893.53;;;8.16;83.99
37852;BME280;23691;52.486;4.650;2023-02-12T05:26:20;103892.66;;;8.16;83.90
37852;BME280;23691;52.486;4.650;2023-02-12T05:28:46;103888.13;;;8.18;83.83
37852;BME280;23691;52.486;4.650;2023-02-12T05:31:16;103887.16;;;8.19;83.67
37852;BME280;23691;52.486;4.650;2023-02-12T05:33:43;103896.97;;;8.18;83.69
37852;BME280;23691;52.486;4.650;2023-02-12T05:36:12;103893.47;;;8.18;83.53
37852;BME280;23691;52.486;4.650;2023-02-12T05:38:38;103895.25;;;8.17;83.68
37852;BME280;23691;52.486;4.650;2023-02-12T05:41:09;103896.06;;;8.20;83.57
37852;BME280;23691;52.486;4.650;2023-02-12T05:43:35;103893.53;;;8.16;83.36
37852;BME280;23691;52.486;4.650;2023-02-12T05:46:04;103891.81;;;8.15;83.38
37852;BME280;23691;52.486;4.650;2023-02-12T05:48:31;103891.81;;;8.15;83.45
37852;BME280;23691;52.486;4.650;2023-02-12T05:53:28;103902.53;;;8.14;83.48
37852;BME280;23691;52.486;4.650;2023-02-12T05:55:53;103909.69;;;8.13;83.42
37852;BME280;23691;52.486;4.650;2023-02-12T05:58:19;103906.06;;;8.14;83.18
37852;BME280;23691;52.486;4.650;2023-02-12T06:00:47;103903.38;;;8.14;83.48
37852;BME280;23691;52.486;4.650;2023-02-12T06:03:12;103902.47;;;8.15;83.21
37852;BME280;23691;52.486;4.650;2023-02-12T06:05:38;103895.38;;;8.14;83.16
37852;BME280;23691;52.486;4.650;2023-02-12T06:08:03;103899.81;;;8.15;83.22
37852;BME280;23691;52.486;4.650;2023-02-12T06:10:31;103902.31;;;8.18;82.92
37852;BME280;23691;52.486;4.650;2023-02-12T06:12:57;103903.28;;;8.17;82.69
37852;BME280;23691;52.486;4.650;2023-02-12T06:15:22;103899.72;;;8.17;82.40
37852;BME280;23691;52.486;4.650;2023-02-12T06:17:47;103902.31;;;8.18;82.33
37852;BME280;23691;52.486;4.650;2023-02-12T06:20:13;103903.28;;;8.17;82.34
37852;BME280;23691;52.486;4.650;2023-02-12T06:22:38;103901.53;;;8.16;82.23
37852;BME280;23691;52.486;4.650;2023-02-12T06:25:04;103900.59;;;8.17;82.20
37852;BME280;23691;52.486;4.650;2023-02-12T06:27:30;103899.66;;;8.18;82.09
37852;BME280;23691;52.486;4.650;2023-02-12T06:29:55;103897.84;;;8.19;81.89
37852;BME280;23691;52.486;4.650;2023-02-12T06:32:21;103891.59;;;8.20;81.98
37852;BME280;23691;52.486;4.650;2023-02-12T06:34:46;103896.91;;;8.20;81.67
37852;BME280;23691;52.486;4.650;2023-02-12T06:37:12;103909.31;;;8.21;81.50
37852;BME280;23691;52.486;4.650;2023-02-12T06:39:40;103897.72;;;8.22;81.26
37852;BME280;23691;52.486;4.650;2023-02-12T06:42:05;103910.16;;;8.22;81.28
37852;BME280;23691;52.486;4.650;2023-02-12T06:44:31;103903.97;;;8.21;81.13
37852;BME280;23691;52.486;4.650;2023-02-12T06:46:56;103906.63;;;8.21;81.01
37852;BME280;23691;52.486;4.650;2023-02-12T06:49:23;103903.06;;;8.22;80.92
37852;BME280;23691;52.486;4.650;2023-02-12T06:51:48;103906.63;;;8.21;80.86
37852;BME280;23691;52.486;4.650;2023-02-12T06:54:15;103907.66;;;8.18;80.80
37852;BME280;23691;52.486;4.650;2023-02-12T06:56:41;103910.25;;;8.20;80.72
37852;BME280;23691;52.486;4.650;2023-02-12T06:59:11;103918.16;;;8.22;80.63
37852;BME280;23691;52.486;4.650;2023-02-12T07:01:40;103919.97;;;8.21;80.48
37852;BME280;23691;52.486;4.650;2023-02-12T07:04:06;103911.97;;;8.21;80.43
37852;BME280;23691;52.486;4.650;2023-02-12T07:06:33;103918.16;;;8.22;80.29
37852;BME280;23691;52.486;4.650;2023-02-12T07:09:00;103917.41;;;8.20;80.40
37852;BME280;23691;52.486;4.650;2023-02-12T07:11:28;103921.84;;;8.19;80.45
37852;BME280;23691;52.486;4.650;2023-02-12T07:13:54;103914.78;;;8.18;80.51
37852;BME280;23691;52.486;4.650;2023-02-12T07:16:20;103918.31;;;8.18;80.36
37852;BME280;23691;52.486;4.650;2023-02-12T07:18:45;103919.97;;;8.21;80.34
37852;BME280;23691;52.486;4.650;2023-02-12T07:21:12;103927.13;;;8.21;80.17
37852;BME280;23691;52.486;4.650;2023-02-12T07:23:38;103923.50;;;8.22;80.35
37852;BME280;23691;52.486;4.650;2023-02-12T07:26:10;103927.06;;;8.22;80.26
37852;BME280;23691;52.486;4.650;2023-02-12T07:28:36;103935.13;;;8.21;80.20
37852;BME280;23691;52.486;4.650;2023-02-12T07:31:09;103934.97;;;8.24;80.25
37852;BME280;23691;52.486;4.650;2023-02-12T07:33:36;103940.25;;;8.25;80.12
37852;BME280;23691;52.486;4.650;2023-02-12T07:36:03;103938.44;;;8.26;80.06
37852;BME280;23691;52.486;4.650;2023-02-12T07:38:29;103939.28;;;8.26;80.25
37852;BME280;23691;52.486;4.650;2023-02-12T07:40:54;103944.56;;;8.28;80.20
37852;BME280;23691;52.486;4.650;2023-02-12T07:43:23;103947.94;;;8.31;80.00
37852;BME280;23691;52.486;4.650;2023-02-12T07:45:48;103957.59;;;8.34;80.09
37852;BME280;23691;52.486;4.650;2023-02-12T07:48:14;103954.00;;;8.35;79.75
37852;BME280;23691;52.486;4.650;2023-02-12T07:50:42;103957.47;;;8.37;79.70
37852;BME280;23691;52.486;4.650;2023-02-12T07:53:07;103960.13;;;8.37;79.76
37852;BME280;23691;52.486;4.650;2023-02-12T07:55:32;103966.31;;;8.37;79.87
37852;BME280;23691;52.486;4.650;2023-02-12T07:57:58;103958.31;;;8.37;79.91
37852;BME280;23691;52.486;4.650;2023-02-12T08:00:23;103967.91;;;8.42;80.02
37852;BME280;23691;52.486;4.650;2023-02-12T08:02:52;103963.31;;;8.45;79.67
37852;BME280;23691;52.486;4.650;2023-02-12T08:05:18;103960.59;;;8.47;79.66
37852;BME280;23691;52.486;4.650;2023-02-12T08:07:43;103964.97;;;8.48;79.78
37852;BME280;23691;52.486;4.650;2023-02-12T08:10:09;103969.22;;;8.52;79.63
37852;BME280;23691;52.486;4.650;2023-02-12T08:12:34;103970.78;;;8.56;79.71
37852;BME280;23691;52.486;4.650;2023-02-12T08:15:00;103975.03;;;8.60;79.54
37852;BME280;23691;52.486;4.650;2023-02-12T08:17:25;103969.66;;;8.62;79.15
37852;BME280;23691;52.486;4.650;2023-02-12T08:19:50;103975.75;;;8.64;78.77
37852;BME280;23691;52.486;4.650;2023-02-12T08:22:16;103980.06;;;8.66;79.17
37852;BME280;23691;52.486;4.650;2023-02-12T08:24:41;103986.13;;;8.70;78.89
37852;BME280;23691;52.486;4.650;2023-02-12T08:27:07;103982.44;;;8.72;78.68
37852;BME280;23691;52.486;4.650;2023-02-12T08:29:32;103988.59;;;8.74;78.68
37852;BME280;23691;52.486;4.650;2023-02-12T08:32:00;103993.75;;;8.77;78.27
37852;BME280;23691;52.486;4.650;2023-02-12T08:34:28;103990.06;;;8.80;78.43
37852;BME280;23691;52.486;4.650;2023-02-12T08:36:54;103983.88;;;8.79;78.33
37852;BME280;23691;52.486;4.650;2023-02-12T08:39:21;103988.19;;;8.82;78.09
37852;BME280;23691;52.486;4.650;2023-02-12T08:41:47;103996.16;;;8.84;77.92
37852;BME280;23691;52.486;4.650;2023-02-12T08:44:13;103999.44;;;8.89;77.87
37852;BME280;23691;52.486;4.650;2023-02-12T08:46:42;103995.66;;;8.93;77.49
37852;BME280;23691;52.486;4.650;2023-02-12T08:49:12;103990.19;;;8.96;77.09
37852;BME280;23691;52.486;4.650;2023-02-12T08:51:40;103987.25;;;9.00;76.78
37852;BME280;23691;52.486;4.650;2023-02-12T08:54:10;103999.59;;;9.03;76.35
37852;BME280;23691;52.486;4.650;2023-02-12T08:56:37;104001.34;;;9.04;75.80
37852;BME280;23691;52.486;4.650;2023-02-12T08:59:05;103997.94;;;9.00;75.32
37852;BME280;23691;52.486;4.650;2023-02-12T09:01:33;104010.44;;;9.00;74.94
37852;BME280;23691;52.486;4.650;2023-02-12T09:03:59;104014.94;;;8.99;74.13
37852;BME280;23691;52.486;4.650;2023-02-12T09:06:26;104010.38;;;9.01;73.74
37852;BME280;23691;52.486;4.650;2023-02-12T09:08:53;104010.06;;;9.08;73.62
37852;BME280;23691;52.486;4.650;2023-02-12T09:11:24;104019.72;;;9.10;73.14
37852;BME280;23691;52.486;4.650;2023-02-12T09:14:00;104013.34;;;9.13;73.24
37852;BME280;23691;52.486;4.650;2023-02-12T09:16:27;104005.34;;;9.13;72.91
37852;BME280;23691;52.486;4.650;2023-02-12T09:18:53;103999.88;;;9.16;72.63
37852;BME280;23691;52.486;4.650;2023-02-12T09:21:19;104010.38;;;9.19;72.41
37852;BME280;23691;52.486;4.650;2023-02-12T09:23:45;104014.63;;;9.23;72.22
37852;BME280;23691;52.486;4.650;2023-02-12T09:26:13;104017.31;;;9.23;71.96
37852;BME280;23691;52.486;4.650;2023-02-12T09:28:40;104009.03;;;9.28;72.10
37852;BME280;23691;52.486;4.650;2023-02-12T09:31:12;104007.94;;;9.32;72.03
37852;BME280;23691;52.486;4.650;2023-02-12T09:33:38;104010.31;;;9.38;72.03
37852;BME280;23691;52.486;4.650;2023-02-12T09:36:14;104008.34;;;9.41;71.83
37852;BME280;23691;52.486;4.650;2023-02-12T09:38:41;104003.69;;;9.45;71.67
37852;BME280;23691;52.486;4.650;2023-02-12T09:41:23;104012.59;;;9.45;71.52
37852;BME280;23691;52.486;4.650;2023-02-12T09:44:25;104007.25;;;9.45;71.53
37852;BME280;23691;52.486;4.650;2023-02-12T09:47:14;104009.97;;;9.44;71.28
37852;BME280;23691;52.486;4.650;2023-02-12T09:49:50;104010.16;;;9.41;71.20
37852;BME280;23691;52.486;4.650;2023-02-12T09:52:24;104007.53;;;9.39;70.77
37852;BME280;23691;52.486;4.650;2023-02-12T09:54:51;104008.72;;;9.34;70.47
37852;BME280;23691;52.486;4.650;2023-02-12T09:57:32;104008.50;;;9.38;70.20
37852;BME280;23691;52.486;4.650;2023-02-12T10:00:17;104007.25;;;9.45;69.89
37852;BME280;23691;52.486;4.650;2023-02-12T10:02:48;104010.59;;;9.49;69.77
37852;BME280;23691;52.486;4.650;2023-02-12T10:05:17;104015.78;;;9.52;69.68
37852;BME280;23691;52.486;4.650;2023-02-12T10:10:50;104019.88;;;9.59;69.62
37852;BME280;23691;52.486;4.650;2023-02-12T10:16:55;104011.72;;;9.62;69.60
37852;BME280;23691;52.486;4.650;2023-02-12T10:19:12;104012.72;;;9.60;69.18
37852;BME280;23691;52.486;4.650;2023-02-12T10:24:40;104016.03;;;9.65;68.95
37852;BME280;23691;52.486;4.650;2023-02-12T10:27:17;104015.84;;;9.68;68.63
37852;BME280;23691;52.486;4.650;2023-02-12T10:29:45;104016.53;;;9.72;68.69
37852;BME280;23691;52.486;4.650;2023-02-12T10:32:27;104018.19;;;9.74;68.32
37852;BME280;23691;52.486;4.650;2023-02-12T10:34:55;104016.47;;;9.73;68.22
37852;BME280;23691;52.486;4.650;2023-02-12T10:37:31;104018.06;;;9.77;67.90
37852;BME280;23691;52.486;4.650;2023-02-12T10:40:17;104010.03;;;9.77;67.97
37852;BME280;23691;52.486;4.650;2023-02-12T10:42:46;104014.50;;;9.77;67.52
37852;BME280;23691;52.486;4.650;2023-02-12T10:45:13;104007.44;;;9.76;67.50
37852;BME280;23691;52.486;4.650;2023-02-12T10:47:39;104002.16;;;9.74;67.02
37852;BME280;23691;52.486;4.650;2023-02-12T10:50:15;104014.50;;;9.77;67.09
37852;BME280;23691;52.486;4.650;2023-02-12T10:52:48;104022.38;;;9.80;66.94
37852;BME280;23691;52.486;4.650;2023-02-12T10:55:28;104012.34;;;9.83;66.90
37852;BME280;23691;52.486;4.650;2023-02-12T10:57:55;104011.31;;;9.86;66.89
37852;BME280;23691;52.486;4.650;2023-02-12T11:00:28;104015.09;;;9.82;66.50
37852;BME280;23691;52.486;4.650;2023-02-12T11:03:17;104006.22;;;9.81;66.18
37852;BME280;23691;52.486;4.650;2023-02-12T11:05:44;104014.41;;;9.78;65.79
37852;BME280;23691;52.486;4.650;2023-02-12T11:08:31;104007.06;;;9.82;65.66
37852;BME280;23691;52.486;4.650;2023-02-12T11:13:45;104005.81;;;9.89;65.48
37852;BME280;23691;52.486;4.650;2023-02-12T11:16:13;104010.13;;;9.92;65.37
37852;BME280;23691;52.486;4.650;2023-02-12T11:18:39;104010.22;;;9.90;64.85
37852;BME280;23691;52.486;4.650;2023-02-12T11:21:09;103999.44;;;9.92;64.84
37852;BME280;23691;52.486;4.650;2023-02-12T11:23:37;103998.41;;;9.94;64.78
37852;BME280;23691;52.486;4.650;2023-02-12T11:28:30;103995.41;;;10.00;64.93
37852;BME280;23691;52.486;4.650;2023-02-12T11:30:59;103996.09;;;10.04;64.22
37852;BME280;23691;52.486;4.650;2023-02-12T11:33:26;103985.38;;;10.04;64.18
37852;BME280;23691;52.486;4.650;2023-02-12T11:35:55;103995.03;;;10.06;64.21
37852;BME280;23691;52.486;4.650;2023-02-12T11:38:38;103996.63;;;10.10;64.17
37852;BME280;23691;52.486;4.650;2023-02-12T11:41:23;103995.75;;;10.10;64.31
37852;BME280;23691;52.486;4.650;2023-02-12T11:43:50;103992.13;;;10.11;64.23
37852;BME280;23691;52.486;4.650;2023-02-12T11:46:23;103987.47;;;10.15;64.29
37852;BME280;23691;52.486;4.650;2023-02-12T11:48:50;103989.19;;;10.16;64.16
37852;BME280;23691;52.486;4.650;2023-02-12T11:51:28;103986.63;;;10.14;63.61
37852;BME280;23691;52.486;4.650;2023-02-12T11:53:58;103988.53;;;10.12;63.71
37852;BME280;23691;52.486;4.650;2023-02-12T11:56:39;103991.25;;;10.10;63.80
37852;BME280;23691;52.486;4.650;2023-02-12T11:59:30;103990.22;;;10.13;63.67
37852;BME280;23691;52.486;4.650;2023-02-12T12:01:58;103988.06;;;10.04;63.53
37852;BME280;23691;52.486;4.650;2023-02-12T12:04:26;103984.88;;;9.97;63.60
37852;BME280;23691;52.486;4.650;2023-02-12T12:07:04;103984.69;;;10.00;63.83
37852;BME280;23691;52.486;4.650;2023-02-12T12:09:39;103990.72;;;10.04;63.89
37852;BME280;23691;52.486;4.650;2023-02-12T12:14:41;103985.75;;;10.14;63.80
37852;BME280;23691;52.486;4.650;2023-02-12T12:20:40;103981.09;;;10.17;64.00
37852;BME280;23691;52.486;4.650;2023-02-12T12:23:16;103979.81;;;10.24;64.00
37852;BME280;23691;52.486;4.650;2023-02-12T12:25:47;103975.31;;;10.25;63.81
37852;BME280;23691;52.486;4.650;2023-02-12T12:34:01;103977.28;;;10.21;63.53
37852;BME280;23691;52.486;4.650;2023-02-12T12:53:06;103969.00;;;10.26;63.61
37852;BME280;23691;52.486;4.650;2023-02-12T13:00:43;103958.66;;;10.20;63.57
37852;BME280;23691;52.486;4.650;2023-02-12T13:06:00;103959.75;;;10.16;63.66
37852;BME280;23691;52.486;4.650;2023-02-12T13:09:02;103958.66;;;10.20;63.65
37852;BME280;23691;52.486;4.650;2023-02-12T13:24:44;103940.69;;;10.06;63.27
37852;BME280;23691;52.486;4.650;2023-02-12T13:27:31;103937.16;;;10.05;63.22
37852;BME280;23691;52.486;4.650;2023-02-12T13:32:35;103928.28;;;10.05;63.26
37852;BME280;23691;52.486;4.650;2023-02-12T13:35:04;103929.13;;;10.05;63.36
37852;BME280;23691;52.486;4.650;2023-02-12T13:37:39;103926.19;;;10.10;63.10
37852;BME280;23691;52.486;4.650;2023-02-12T13:40:09;103925.25;;;10.11;63.12
37852;BME280;23691;52.486;4.650;2023-02-12T13:56:52;103916.19;;;10.14;63.44
37852;BME280;23691;52.486;4.650;2023-02-12T14:02:02;103907.47;;;10.10;63.62
37852;BME280;23691;52.486;4.650;2023-02-12T14:04:33;103903.16;;;10.07;63.31
37852;BME280;23691;52.486;4.650;2023-02-12T14:09:40;103902.44;;;10.04;63.06
37852;BME280;23691;52.486;4.650;2023-02-12T14:14:52;103906.16;;;10.01;62.89
37852;BME280;23691;52.486;4.650;2023-02-12T14:25:00;103898.56;;;9.94;63.07
37852;BME280;23691;52.486;4.650;2023-02-12T14:27:56;103902.28;;;9.91;62.89
37852;BME280;23691;52.486;4.650;2023-02-12T14:30:26;103906.09;;;9.87;63.26
37852;BME280;23691;52.486;4.650;2023-02-12T14:33:29;103904.53;;;9.83;63.20
37852;BME280;23691;52.486;4.650;2023-02-12T14:47:03;103900.91;;;9.68;63.11
37852;BME280;23691;52.486;4.650;2023-02-12T14:49:41;103892.88;;;9.68;63.08
37852;BME280;23691;52.486;4.650;2023-02-12T14:55:02;103887.41;;;9.70;63.09
37852;BME280;23691;52.486;4.650;2023-02-12T14:57:38;103885.63;;;9.70;63.18
37852;BME280;23691;52.486;4.650;2023-02-12T15:05:38;103892.34;;;9.61;63.18
37852;BME280;23691;52.486;4.650;2023-02-12T15:08:11;103892.25;;;9.63;63.36
37852;BME280;23691;52.486;4.650;2023-02-12T15:10:47;103893.19;;;9.62;63.13
37852;BME280;23691;52.486;4.650;2023-02-12T15:21:20;103882.69;;;9.59;64.08
37852;BME280;23691;52.486;4.650;2023-02-12T15:23:59;103881.81;;;9.58;64.16
37852;BME280;23691;52.486;4.650;2023-02-12T15:26:26;103881.81;;;9.58;64.30
37852;BME280;23691;52.486;4.650;2023-02-12T15:28:55;103879.22;;;9.57;64.54
37852;BME280;23691;52.486;4.650;2023-02-12T15:31:29;103875.63;;;9.58;64.74
37852;BME280;23691;52.486;4.650;2023-02-12T15:33:57;103878.38;;;9.56;64.95
37852;BME280;23691;52.486;4.650;2023-02-12T15:36:27;103881.03;;;9.56;65.12
37852;BME280;23691;52.486;4.650;2023-02-12T15:38:56;103880.06;;;9.57;65.23
37852;BME280;23691;52.486;4.650;2023-02-12T15:41:34;103880.97;;;9.58;65.37
37852;BME280;23691;52.486;4.650;2023-02-12T15:44:18;103883.72;;;9.56;65.61
37852;BME280;23691;52.486;4.650;2023-02-12T15:46:57;103882.25;;;9.51;65.80
37852;BME280;23691;52.486;4.650;2023-02-12T15:49:27;103883.16;;;9.50;65.91